sensor_id;sensor_type;location;lat;lon;timestamp;temperature;humidity
66576;SHT31;53428;47.686;16.584;2023-08-06T00:00:05;17.06;95.86
66576;SHT31;53428;47.686;16.584;2023-08-06T00:05:05;17.08;95.81
66576;SHT31;53428;47.686;16.584;2023-08-06T00:10:05;17.06;95.62
66576;SHT31;53428;47.686;16.584;2023-08-06T00:15:05;17.11;95.53
66576;SHT31;53428;47.686;16.584;2023-08-06T00:20:05;17.08;95.63
66576;SHT31;53428;47.686;16.584;2023-08-06T00:25:05;17.08;95.03
66576;SHT31;53428;47.686;16.584;2023-08-06T00:30:05;16.98;94.99
66576;SHT31;53428;47.686;16.584;2023-08-06T00:35:05;16.96;95.12
66576;SHT31;53428;47.686;16.584;2023-08-06T00:40:06;16.91;95.59
66576;SHT31;53428;47.686;16.584;2023-08-06T00:45:06;16.85;95.77
66576;SHT31;53428;47.686;16.584;2023-08-06T00:50:07;16.78;96.07
66576;SHT31;53428;47.686;16.584;2023-08-06T00:55:07;16.65;96.57
66576;SHT31;53428;47.686;16.584;2023-08-06T01:00:07;16.57;97.27
66576;SHT31;53428;47.686;16.584;2023-08-06T01:05:06;16.50;97.46
66576;SHT31;53428;47.686;16.584;2023-08-06T01:10:24;16.47;97.21
66576;SHT31;53428;47.686;16.584;2023-08-06T01:15:30;16.48;96.80
66576;SHT31;53428;47.686;16.584;2023-08-06T01:20:31;16.45;96.80
66576;SHT31;53428;47.686;16.584;2023-08-06T01:25:35;16.48;96.31
66576;SHT31;53428;47.686;16.584;2023-08-06T01:30:41;16.53;95.74
66576;SHT31;53428;47.686;16.584;2023-08-06T01:35:41;16.55;95.39
66576;SHT31;53428;47.686;16.584;2023-08-06T01:40:41;16.60;95.08
66576;SHT31;53428;47.686;16.584;2023-08-06T01:45:41;16.63;95.01
66576;SHT31;53428;47.686;16.584;2023-08-06T01:50:40;16.53;95.23
66576;SHT31;53428;47.686;16.584;2023-08-06T01:55:40;16.47;95.54
66576;SHT31;53428;47.686;16.584;2023-08-06T02:00:41;16.36;96.01
66576;SHT31;53428;47.686;16.584;2023-08-06T02:05:40;16.13;97.62
66576;SHT31;53428;47.686;16.584;2023-08-06T02:10:40;15.96;98.68
66576;SHT31;53428;47.686;16.584;2023-08-06T02:15:44;15.92;98.47
66576;SHT31;53428;47.686;16.584;2023-08-06T02:20:43;15.90;98.41
66576;SHT31;53428;47.686;16.584;2023-08-06T02:25:43;15.99;97.68
66576;SHT31;53428;47.686;16.584;2023-08-06T02:30:50;16.05;97.39
66576;SHT31;53428;47.686;16.584;2023-08-06T02:35:49;16.07;96.70
66576;SHT31;53428;47.686;16.584;2023-08-06T02:40:49;16.14;96.33
66576;SHT31;53428;47.686;16.584;2023-08-06T02:45:48;16.18;96.04
66576;SHT31;53428;47.686;16.584;2023-08-06T02:50:48;16.27;95.31
66576;SHT31;53428;47.686;16.584;2023-08-06T02:55:47;16.21;95.59
66576;SHT31;53428;47.686;16.584;2023-08-06T03:00:47;16.24;94.90
66576;SHT31;53428;47.686;16.584;2023-08-06T03:05:55;16.30;94.48
66576;SHT31;53428;47.686;16.584;2023-08-06T03:10:54;16.33;93.86
66576;SHT31;53428;47.686;16.584;2023-08-06T03:15:58;16.53;92.47
66576;SHT31;53428;47.686;16.584;2023-08-06T03:20:58;16.63;91.67
66576;SHT31;53428;47.686;16.584;2023-08-06T03:26:03;16.65;91.14
66576;SHT31;53428;47.686;16.584;2023-08-06T03:31:03;16.64;91.09
66576;SHT31;53428;47.686;16.584;2023-08-06T03:36:03;16.68;90.67
66576;SHT31;53428;47.686;16.584;2023-08-06T03:41:03;16.65;90.81
66576;SHT31;53428;47.686;16.584;2023-08-06T03:46:02;16.65;90.86
66576;SHT31;53428;47.686;16.584;2023-08-06T03:51:01;16.68;90.71
66576;SHT31;53428;47.686;16.584;2023-08-06T03:56:01;16.67;90.51
66576;SHT31;53428;47.686;16.584;2023-08-06T04:01:01;16.75;89.74
66576;SHT31;53428;47.686;16.584;2023-08-06T04:06:04;16.81;89.60
66576;SHT31;53428;47.686;16.584;2023-08-06T04:11:03;16.84;89.14
66576;SHT31;53428;47.686;16.584;2023-08-06T04:16:03;16.81;89.19
66576;SHT31;53428;47.686;16.584;2023-08-06T04:21:02;16.92;88.31
66576;SHT31;53428;47.686;16.584;2023-08-06T04:26:02;16.96;88.25
66576;SHT31;53428;47.686;16.584;2023-08-06T04:31:01;16.96;88.03
66576;SHT31;53428;47.686;16.584;2023-08-06T04:36:01;17.03;87.59
66576;SHT31;53428;47.686;16.584;2023-08-06T04:41:02;17.05;87.40
66576;SHT31;53428;47.686;16.584;2023-08-06T04:46:02;17.16;86.83
66576;SHT31;53428;47.686;16.584;2023-08-06T04:51:01;17.15;86.71
66576;SHT31;53428;47.686;16.584;2023-08-06T04:56:01;17.18;86.43
66576;SHT31;53428;47.686;16.584;2023-08-06T05:01:00;17.23;86.01
66576;SHT31;53428;47.686;16.584;2023-08-06T05:05:59;17.32;85.59
66576;SHT31;53428;47.686;16.584;2023-08-06T05:10:59;17.32;85.50
66576;SHT31;53428;47.686;16.584;2023-08-06T05:15:58;17.44;84.82
66576;SHT31;53428;47.686;16.584;2023-08-06T05:20:58;17.49;85.14
66576;SHT31;53428;47.686;16.584;2023-08-06T05:25:57;17.33;85.61
66576;SHT31;53428;47.686;16.584;2023-08-06T05:30:56;17.34;86.31
66576;SHT31;53428;47.686;16.584;2023-08-06T05:35:56;17.20;87.06
66576;SHT31;53428;47.686;16.584;2023-08-06T05:40:55;16.93;87.52
66576;SHT31;53428;47.686;16.584;2023-08-06T05:45:55;16.92;87.44
66576;SHT31;53428;47.686;16.584;2023-08-06T05:50:55;17.03;86.65
66576;SHT31;53428;47.686;16.584;2023-08-06T05:55:54;17.02;87.06
66576;SHT31;53428;47.686;16.584;2023-08-06T06:00:53;17.11;86.59
66576;SHT31;53428;47.686;16.584;2023-08-06T06:05:53;17.24;85.97
66576;SHT31;53428;47.686;16.584;2023-08-06T06:10:52;17.33;85.95
66576;SHT31;53428;47.686;16.584;2023-08-06T06:15:54;17.47;85.94
66576;SHT31;53428;47.686;16.584;2023-08-06T06:20:54;17.64;85.60
66576;SHT31;53428;47.686;16.584;2023-08-06T06:25:54;17.75;85.26
66576;SHT31;53428;47.686;16.584;2023-08-06T06:31:00;17.98;84.57
66576;SHT31;53428;47.686;16.584;2023-08-06T06:35:59;18.13;84.29
66576;SHT31;53428;47.686;16.584;2023-08-06T06:40:58;18.16;84.27
66576;SHT31;53428;47.686;16.584;2023-08-06T06:45:59;18.28;83.63
66576;SHT31;53428;47.686;16.584;2023-08-06T06:50:59;18.42;83.11
66576;SHT31;53428;47.686;16.584;2023-08-06T06:56:03;18.53;82.54
66576;SHT31;53428;47.686;16.584;2023-08-06T07:01:03;18.71;82.15
66576;SHT31;53428;47.686;16.584;2023-08-06T07:06:02;18.68;81.64
66576;SHT31;53428;47.686;16.584;2023-08-06T07:11:04;18.73;81.67
66576;SHT31;53428;47.686;16.584;2023-08-06T07:16:03;18.85;81.31
66576;SHT31;53428;47.686;16.584;2023-08-06T07:21:02;18.93;80.89
66576;SHT31;53428;47.686;16.584;2023-08-06T07:26:02;19.00;80.16
66576;SHT31;53428;47.686;16.584;2023-08-06T07:31:02;18.84;79.57
66576;SHT31;53428;47.686;16.584;2023-08-06T07:36:10;19.05;79.54
66576;SHT31;53428;47.686;16.584;2023-08-06T07:41:10;19.24;79.17
66576;SHT31;53428;47.686;16.584;2023-08-06T07:46:10;19.26;78.69
66576;SHT31;53428;47.686;16.584;2023-08-06T07:51:12;19.29;78.90
66576;SHT31;53428;47.686;16.584;2023-08-06T07:56:12;19.33;79.57
66576;SHT31;53428;47.686;16.584;2023-08-06T08:01:12;19.65;79.18
66576;SHT31;53428;47.686;16.584;2023-08-06T08:06:11;19.48;78.34
66576;SHT31;53428;47.686;16.584;2023-08-06T08:11:10;19.60;77.35
66576;SHT31;53428;47.686;16.584;2023-08-06T08:16:10;19.70;77.24
66576;SHT31;53428;47.686;16.584;2023-08-06T08:21:09;19.83;76.37
66576;SHT31;53428;47.686;16.584;2023-08-06T08:26:09;20.18;76.31
66576;SHT31;53428;47.686;16.584;2023-08-06T08:31:09;20.18;75.59
66576;SHT31;53428;47.686;16.584;2023-08-06T08:36:10;19.90;75.83
66576;SHT31;53428;47.686;16.584;2023-08-06T08:41:10;19.38;76.42
66576;SHT31;53428;47.686;16.584;2023-08-06T08:46:11;19.36;75.58
66576;SHT31;53428;47.686;16.584;2023-08-06T08:51:12;19.66;75.46
66576;SHT31;53428;47.686;16.584;2023-08-06T08:56:13;19.74;74.80
66576;SHT31;53428;47.686;16.584;2023-08-06T09:01:15;20.04;74.06
66576;SHT31;53428;47.686;16.584;2023-08-06T09:06:15;20.22;73.37
66576;SHT31;53428;47.686;16.584;2023-08-06T09:11:17;20.27;73.38
66576;SHT31;53428;47.686;16.584;2023-08-06T09:16:19;20.27;73.62
66576;SHT31;53428;47.686;16.584;2023-08-06T09:21:19;20.17;73.47
66576;SHT31;53428;47.686;16.584;2023-08-06T09:26:18;20.04;74.22
66576;SHT31;53428;47.686;16.584;2023-08-06T09:31:17;19.86;74.36
66576;SHT31;53428;47.686;16.584;2023-08-06T09:36:17;19.39;75.55
66576;SHT31;53428;47.686;16.584;2023-08-06T09:41:26;19.14;76.59
66576;SHT31;53428;47.686;16.584;2023-08-06T09:46:32;19.07;76.55
66576;SHT31;53428;47.686;16.584;2023-08-06T09:51:32;18.93;78.25
66576;SHT31;53428;47.686;16.584;2023-08-06T09:56:33;19.01;78.47
66576;SHT31;53428;47.686;16.584;2023-08-06T10:01:36;19.10;77.91
66576;SHT31;53428;47.686;16.584;2023-08-06T10:06:36;19.18;77.94
66576;SHT31;53428;47.686;16.584;2023-08-06T10:11:39;19.31;77.44
66576;SHT31;53428;47.686;16.584;2023-08-06T10:16:40;19.16;77.87
66576;SHT31;53428;47.686;16.584;2023-08-06T10:21:40;19.03;78.22
66576;SHT31;53428;47.686;16.584;2023-08-06T10:26:39;19.10;78.19
66576;SHT31;53428;47.686;16.584;2023-08-06T10:32:07;19.52;76.74
66576;SHT31;53428;47.686;16.584;2023-08-06T10:37:09;19.38;75.07
66576;SHT31;53428;47.686;16.584;2023-08-06T10:42:22;19.43;74.57
66576;SHT31;53428;47.686;16.584;2023-08-06T10:47:27;19.52;73.73
66576;SHT31;53428;47.686;16.584;2023-08-06T10:52:27;19.59;73.38
66576;SHT31;53428;47.686;16.584;2023-08-06T10:57:26;19.58;73.08
66576;SHT31;53428;47.686;16.584;2023-08-06T11:02:26;19.55;73.89
66576;SHT31;53428;47.686;16.584;2023-08-06T11:07:29;19.43;74.51
66576;SHT31;53428;47.686;16.584;2023-08-06T11:12:29;19.43;73.71
66576;SHT31;53428;47.686;16.584;2023-08-06T11:17:29;19.67;73.07
66576;SHT31;53428;47.686;16.584;2023-08-06T11:22:29;19.74;72.04
66576;SHT31;53428;47.686;16.584;2023-08-06T11:27:28;19.65;71.94
66576;SHT31;53428;47.686;16.584;2023-08-06T11:32:28;19.72;71.50
66576;SHT31;53428;47.686;16.584;2023-08-06T11:37:27;19.59;71.47
66576;SHT31;53428;47.686;16.584;2023-08-06T11:42:30;19.81;71.33
66576;SHT31;53428;47.686;16.584;2023-08-06T11:47:30;19.72;71.40
66576;SHT31;53428;47.686;16.584;2023-08-06T11:52:29;19.56;71.64
66576;SHT31;53428;47.686;16.584;2023-08-06T11:57:32;19.39;72.28
66576;SHT31;53428;47.686;16.584;2023-08-06T12:02:32;19.19;72.49
66576;SHT31;53428;47.686;16.584;2023-08-06T12:07:38;19.10;72.42
66576;SHT31;53428;47.686;16.584;2023-08-06T12:12:37;19.15;72.16
66576;SHT31;53428;47.686;16.584;2023-08-06T12:17:37;19.07;72.47
66576;SHT31;53428;47.686;16.584;2023-08-06T12:22:37;19.19;73.54
66576;SHT31;53428;47.686;16.584;2023-08-06T12:27:39;19.16;73.61
66576;SHT31;53428;47.686;16.584;2023-08-06T12:32:39;19.19;74.16
66576;SHT31;53428;47.686;16.584;2023-08-06T12:37:39;19.38;73.71
66576;SHT31;53428;47.686;16.584;2023-08-06T12:42:38;19.41;74.36
66576;SHT31;53428;47.686;16.584;2023-08-06T12:47:37;19.45;74.69
66576;SHT31;53428;47.686;16.584;2023-08-06T12:52:36;19.62;74.90
66576;SHT31;53428;47.686;16.584;2023-08-06T12:57:36;19.97;74.57
66576;SHT31;53428;47.686;16.584;2023-08-06T13:02:35;19.97;74.39
66576;SHT31;53428;47.686;16.584;2023-08-06T13:07:35;20.85;71.83
66576;SHT31;53428;47.686;16.584;2023-08-06T13:12:34;20.95;70.96
66576;SHT31;53428;47.686;16.584;2023-08-06T13:17:34;21.57;69.58
66576;SHT31;53428;47.686;16.584;2023-08-06T13:22:33;21.62;68.59
66576;SHT31;53428;47.686;16.584;2023-08-06T13:27:33;22.02;67.52
66576;SHT31;53428;47.686;16.584;2023-08-06T13:32:33;21.91;67.18
66576;SHT31;53428;47.686;16.584;2023-08-06T13:37:33;22.03;65.84
66576;SHT31;53428;47.686;16.584;2023-08-06T13:42:33;22.02;66.58
66576;SHT31;53428;47.686;16.584;2023-08-06T13:47:32;22.20;66.79
66576;SHT31;53428;47.686;16.584;2023-08-06T13:52:32;22.20;66.42
66576;SHT31;53428;47.686;16.584;2023-08-06T13:57:32;21.74;66.54
66576;SHT31;53428;47.686;16.584;2023-08-06T14:02:31;21.51;66.99
66576;SHT31;53428;47.686;16.584;2023-08-06T14:07:31;21.59;67.17
66576;SHT31;53428;47.686;16.584;2023-08-06T14:12:31;21.91;66.24
66576;SHT31;53428;47.686;16.584;2023-08-06T14:17:31;21.72;66.30
66576;SHT31;53428;47.686;16.584;2023-08-06T14:22:31;21.71;66.43
66576;SHT31;53428;47.686;16.584;2023-08-06T14:27:30;21.50;66.91
66576;SHT31;53428;47.686;16.584;2023-08-06T14:32:31;21.40;67.22
66576;SHT31;53428;47.686;16.584;2023-08-06T14:37:30;21.10;67.74
66576;SHT31;53428;47.686;16.584;2023-08-06T14:42:30;21.37;67.26
66576;SHT31;53428;47.686;16.584;2023-08-06T14:47:30;21.35;67.30
66576;SHT31;53428;47.686;16.584;2023-08-06T14:52:30;20.72;69.19
66576;SHT31;53428;47.686;16.584;2023-08-06T14:57:31;20.83;70.68
66576;SHT31;53428;47.686;16.584;2023-08-06T15:02:31;22.06;66.76
66576;SHT31;53428;47.686;16.584;2023-08-06T15:07:31;22.50;66.12
66576;SHT31;53428;47.686;16.584;2023-08-06T15:12:34;23.78;62.03
66576;SHT31;53428;47.686;16.584;2023-08-06T15:17:34;25.49;58.76
66576;SHT31;53428;47.686;16.584;2023-08-06T15:22:34;24.59;59.79
66576;SHT31;53428;47.686;16.584;2023-08-06T15:27:33;23.54;61.79
66576;SHT31;53428;47.686;16.584;2023-08-06T15:32:34;24.45;59.64
66576;SHT31;53428;47.686;16.584;2023-08-06T15:37:34;22.39;62.90
66576;SHT31;53428;47.686;16.584;2023-08-06T15:42:34;21.75;64.92
66576;SHT31;53428;47.686;16.584;2023-08-06T15:47:33;22.77;62.72
66576;SHT31;53428;47.686;16.584;2023-08-06T15:52:38;26.00;56.88
66576;SHT31;53428;47.686;16.584;2023-08-06T15:57:40;24.21;60.49
66576;SHT31;53428;47.686;16.584;2023-08-06T16:02:39;24.90;57.22
66576;SHT31;53428;47.686;16.584;2023-08-06T16:07:39;25.89;55.71
66576;SHT31;53428;47.686;16.584;2023-08-06T16:12:39;24.90;56.61
66576;SHT31;53428;47.686;16.584;2023-08-06T16:17:38;23.35;60.00
66576;SHT31;53428;47.686;16.584;2023-08-06T16:22:38;21.55;64.55
66576;SHT31;53428;47.686;16.584;2023-08-06T16:27:39;22.81;62.44
66576;SHT31;53428;47.686;16.584;2023-08-06T16:32:39;21.71;64.57
66576;SHT31;53428;47.686;16.584;2023-08-06T16:37:38;20.82;66.79
66576;SHT31;53428;47.686;16.584;2023-08-06T16:42:38;21.61;65.12
66576;SHT31;53428;47.686;16.584;2023-08-06T16:47:38;21.57;64.68
66576;SHT31;53428;47.686;16.584;2023-08-06T16:52:37;20.24;67.90
66576;SHT31;53428;47.686;16.584;2023-08-06T16:57:37;19.94;69.42
66576;SHT31;53428;47.686;16.584;2023-08-06T17:02:36;19.58;70.37
66576;SHT31;53428;47.686;16.584;2023-08-06T17:07:36;19.60;70.41
66576;SHT31;53428;47.686;16.584;2023-08-06T17:12:35;22.20;64.40
66576;SHT31;53428;47.686;16.584;2023-08-06T17:17:35;23.08;61.09
66576;SHT31;53428;47.686;16.584;2023-08-06T17:22:35;21.48;63.52
66576;SHT31;53428;47.686;16.584;2023-08-06T17:27:35;20.39;66.64
66576;SHT31;53428;47.686;16.584;2023-08-06T17:32:35;19.66;68.51
66576;SHT31;53428;47.686;16.584;2023-08-06T17:37:35;19.35;69.45
66576;SHT31;53428;47.686;16.584;2023-08-06T17:42:55;19.04;70.17
66576;SHT31;53428;47.686;16.584;2023-08-06T17:47:59;18.78;70.44
66576;SHT31;53428;47.686;16.584;2023-08-06T17:52:59;18.61;71.02
66576;SHT31;53428;47.686;16.584;2023-08-06T17:57:58;18.55;71.43
66576;SHT31;53428;47.686;16.584;2023-08-06T18:03:00;18.46;71.71
66576;SHT31;53428;47.686;16.584;2023-08-06T18:08:02;18.37;72.16
66576;SHT31;53428;47.686;16.584;2023-08-06T18:13:02;18.30;72.48
66576;SHT31;53428;47.686;16.584;2023-08-06T18:18:02;18.32;71.67
66576;SHT31;53428;47.686;16.584;2023-08-06T18:23:02;18.35;71.33
66576;SHT31;53428;47.686;16.584;2023-08-06T18:28:03;18.29;70.95
66576;SHT31;53428;47.686;16.584;2023-08-06T18:33:03;18.35;70.74
66576;SHT31;53428;47.686;16.584;2023-08-06T18:38:04;18.33;70.86
66576;SHT31;53428;47.686;16.584;2023-08-06T18:43:06;18.35;70.68
66576;SHT31;53428;47.686;16.584;2023-08-06T18:48:07;18.33;70.85
66576;SHT31;53428;47.686;16.584;2023-08-06T18:53:07;18.25;71.01
66576;SHT31;53428;47.686;16.584;2023-08-06T18:58:06;18.21;71.43
66576;SHT31;53428;47.686;16.584;2023-08-06T19:03:09;18.02;72.34
66576;SHT31;53428;47.686;16.584;2023-08-06T19:08:09;18.09;71.94
66576;SHT31;53428;47.686;16.584;2023-08-06T19:13:11;18.13;71.66
66576;SHT31;53428;47.686;16.584;2023-08-06T19:18:13;18.10;71.65
66576;SHT31;53428;47.686;16.584;2023-08-06T19:23:13;18.05;71.45
66576;SHT31;53428;47.686;16.584;2023-08-06T19:28:17;18.26;69.65
66576;SHT31;53428;47.686;16.584;2023-08-06T19:33:20;18.33;68.62
66576;SHT31;53428;47.686;16.584;2023-08-06T19:38:22;18.35;68.30
66576;SHT31;53428;47.686;16.584;2023-08-06T19:43:22;18.25;68.45
66576;SHT31;53428;47.686;16.584;2023-08-06T19:48:22;18.18;68.81
66576;SHT31;53428;47.686;16.584;2023-08-06T19:53:22;18.12;68.80
66576;SHT31;53428;47.686;16.584;2023-08-06T19:58:27;18.21;68.24
66576;SHT31;53428;47.686;16.584;2023-08-06T20:03:27;18.09;68.45
66576;SHT31;53428;47.686;16.584;2023-08-06T20:08:33;18.01;68.42
66576;SHT31;53428;47.686;16.584;2023-08-06T20:13:34;17.84;68.65
66576;SHT31;53428;47.686;16.584;2023-08-06T20:18:35;17.73;69.12
66576;SHT31;53428;47.686;16.584;2023-08-06T20:23:35;17.59;69.77
66576;SHT31;53428;47.686;16.584;2023-08-06T20:28:34;17.41;70.36
66576;SHT31;53428;47.686;16.584;2023-08-06T20:33:34;17.34;70.32
66576;SHT31;53428;47.686;16.584;2023-08-06T20:38:37;17.36;70.16
66576;SHT31;53428;47.686;16.584;2023-08-06T20:43:37;17.19;70.88
66576;SHT31;53428;47.686;16.584;2023-08-06T20:48:37;17.16;70.70
66576;SHT31;53428;47.686;16.584;2023-08-06T20:53:36;17.05;70.98
66576;SHT31;53428;47.686;16.584;2023-08-06T20:58:36;17.08;70.65
66576;SHT31;53428;47.686;16.584;2023-08-06T21:03:35;17.15;69.80
66576;SHT31;53428;47.686;16.584;2023-08-06T21:08:35;17.16;69.74
66576;SHT31;53428;47.686;16.584;2023-08-06T21:13:35;17.15;69.68
66576;SHT31;53428;47.686;16.584;2023-08-06T21:18:34;17.13;69.86
66576;SHT31;53428;47.686;16.584;2023-08-06T21:23:34;17.02;70.05
66576;SHT31;53428;47.686;16.584;2023-08-06T21:28:34;16.95;70.29
66576;SHT31;53428;47.686;16.584;2023-08-06T21:33:35;16.79;70.62
66576;SHT31;53428;47.686;16.584;2023-08-06T21:38:36;16.75;70.68
66576;SHT31;53428;47.686;16.584;2023-08-06T21:43:37;16.60;70.93
66576;SHT31;53428;47.686;16.584;2023-08-06T21:48:38;16.50;71.34
66576;SHT31;53428;47.686;16.584;2023-08-06T21:53:38;16.28;71.89
66576;SHT31;53428;47.686;16.584;2023-08-06T21:58:43;16.30;71.75
66576;SHT31;53428;47.686;16.584;2023-08-06T22:03:42;16.60;70.48
66576;SHT31;53428;47.686;16.584;2023-08-06T22:08:42;16.65;70.14
66576;SHT31;53428;47.686;16.584;2023-08-06T22:13:41;16.64;70.28
66576;SHT31;53428;47.686;16.584;2023-08-06T22:18:40;16.58;70.12
66576;SHT31;53428;47.686;16.584;2023-08-06T22:23:41;16.48;70.52
66576;SHT31;53428;47.686;16.584;2023-08-06T22:28:41;16.38;70.91
66576;SHT31;53428;47.686;16.584;2023-08-06T22:33:41;16.33;71.03
66576;SHT31;53428;47.686;16.584;2023-08-06T22:38:40;16.34;70.67
66576;SHT31;53428;47.686;16.584;2023-08-06T22:43:40;16.28;70.84
66576;SHT31;53428;47.686;16.584;2023-08-06T22:48:39;16.27;70.73
66576;SHT31;53428;47.686;16.584;2023-08-06T22:53:39;16.06;71.48
66576;SHT31;53428;47.686;16.584;2023-08-06T22:58:38;16.00;71.71
66576;SHT31;53428;47.686;16.584;2023-08-06T23:03:37;16.03;71.58
66576;SHT31;53428;47.686;16.584;2023-08-06T23:08:37;15.83;71.96
66576;SHT31;53428;47.686;16.584;2023-08-06T23:13:36;15.66;72.55
66576;SHT31;53428;47.686;16.584;2023-08-06T23:18:35;15.85;72.03
66576;SHT31;53428;47.686;16.584;2023-08-06T23:23:35;15.66;72.69
66576;SHT31;53428;47.686;16.584;2023-08-06T23:28:34;15.54;73.20
66576;SHT31;53428;47.686;16.584;2023-08-06T23:33:33;15.52;73.14
66576;SHT31;53428;47.686;16.584;2023-08-06T23:38:32;15.40;73.50
66576;SHT31;53428;47.686;16.584;2023-08-06T23:43:32;15.41;73.61
66576;SHT31;53428;47.686;16.584;2023-08-06T23:48:31;15.48;73.04
66576;SHT31;53428;47.686;16.584;2023-08-06T23:53:31;15.40;73.39
66576;SHT31;53428;47.686;16.584;2023-08-06T23:58:30;15.34;73.61
